Time;durP1;ratioP1;P1;durP2;ratioP2;P2;SDS_P1;SDS_P2;PMS_P1;PMS_P2;Temp;Humidity;BMP_temperature;BMP_pressure;BME280_temperature;BME280_humidity;BME280_pressure;Samples;Min_cycle;Max_cycle;Signal;HPM_P1;HPM_P2
2021/06/05 00:02:25;;;;;;;3.50;3.30;;;;;;;19.53;88.11;100792.06;4991547;28;20236;-71
2021/06/05 00:04:53;;;;;;;3.30;3.10;;;;;;;19.46;87.54;100794.66;4991394;28;20165;-72
2021/06/05 00:07:20;;;;;;;2.87;2.67;;;;;;;19.48;87.17;100785.97;4991426;28;20169;-72
2021/06/05 00:09:45;;;;;;;2.80;2.70;;;;;;;19.50;86.79;100786.41;4990987;28;20180;-71
2021/06/05 00:12:14;;;;;;;3.33;3.13;;;;;;;19.47;86.79;100787.94;4991269;28;20173;-72
2021/06/05 00:14:40;;;;;;;3.47;3.17;;;;;;;19.44;86.92;100779.56;4991090;28;20454;-72
2021/06/05 00:17:05;;;;;;;3.53;3.17;;;;;;;19.46;86.71;100775.25;4991248;28;20599;-72
2021/06/05 00:19:30;;;;;;;3.63;3.33;;;;;;;19.47;86.90;100773.28;4991265;28;20261;-72
2021/06/05 00:21:56;;;;;;;2.97;2.77;;;;;;;19.45;86.80;100772.84;4991231;28;20742;-72
2021/06/05 00:24:21;;;;;;;3.53;3.23;;;;;;;19.41;86.81;100772.78;4991189;28;20654;-72
2021/06/05 00:26:47;;;;;;;3.33;3.13;;;;;;;19.39;87.51;100769.56;4991525;28;20235;-72
2021/06/05 00:29:13;;;;;;;3.20;3.00;;;;;;;19.39;88.38;100768.78;4991384;28;20181;-72
2021/06/05 00:31:39;;;;;;;4.47;3.83;;;;;;;19.28;88.41;100766.56;4991452;28;20223;-72
2021/06/05 00:34:05;;;;;;;3.47;3.27;;;;;;;19.39;88.68;100769.56;4991044;28;20193;-72
2021/06/05 00:36:31;;;;;;;4.10;3.80;;;;;;;19.36;88.46;100770.28;4991112;28;20799;-72
2021/06/05 00:38:56;;;;;;;5.83;5.33;;;;;;;19.29;88.96;100770.13;4987423;28;20181;-72
2021/06/05 00:41:24;;;;;;;4.73;4.33;;;;;;;19.24;89.18;100767.63;4971458;28;20206;-72
2021/06/05 00:43:54;;;;;;;4.43;4.13;;;;;;;19.07;90.10;100757.75;4971453;28;20649;-71
2021/06/05 00:46:21;;;;;;;4.00;3.80;;;;;;;19.06;90.62;100766.44;4971451;28;20631;-72
2021/06/05 00:48:48;;;;;;;4.03;3.80;;;;;;;19.02;90.70;100761.63;4970098;28;20273;-72
2021/06/05 00:51:14;;;;;;;4.47;3.57;;;;;;;18.87;90.96;100761.66;4971494;28;20183;-72
2021/06/05 00:53:40;;;;;;;3.87;3.57;;;;;;;18.88;91.77;100757.72;4973315;28;20276;-72
2021/06/05 00:56:09;;;;;;;3.90;3.70;;;;;;;18.87;91.52;100759.69;4975055;28;20643;-71
2021/06/05 00:58:35;;;;;;;4.20;3.90;;;;;;;18.88;91.71;100758.53;4974940;28;20181;-72
2021/06/05 01:01:09;;;;;;;4.23;3.93;;;;;;;18.88;91.08;100763.25;4975012;28;20205;-72
2021/06/05 01:03:36;;;;;;;3.80;3.50;;;;;;;18.84;91.09;100757.66;4973610;28;20177;-72
2021/06/05 01:06:08;;;;;;;4.30;4.00;;;;;;;18.68;91.38;100763.19;4974944;28;20178;-72
2021/06/05 01:08:42;;;;;;;4.10;3.90;;;;;;;18.46;92.54;100746.38;4974568;28;20309;-72
2021/06/05 01:11:38;;;;;;;4.27;3.97;;;;;;;18.37;93.57;100750.16;4974822;28;20178;-72
2021/06/05 01:14:32;;;;;;;3.50;3.30;;;;;;;18.38;94.01;100748.97;4974721;28;20276;-72
2021/06/05 01:17:01;;;;;;;3.23;3.03;;;;;;;18.42;94.01;100749.88;4965605;28;20627;-72
2021/06/05 01:19:46;;;;;;;4.53;4.20;;;;;;;18.33;93.57;100746.47;4974592;28;20177;-72
2021/06/05 01:23:05;;;;;;;3.60;3.30;;;;;;;18.15;93.95;100745.22;4974631;28;20182;-71
2021/06/05 01:25:43;;;;;;;3.17;2.97;;;;;;;17.91;95.25;100742.56;4933497;29;20636;-72
2021/06/05 01:28:43;;;;;;;2.90;2.70;;;;;;;17.69;96.26;100752.25;4974335;28;20185;-72
2021/06/05 01:31:13;;;;;;;3.43;3.20;;;;;;;17.62;97.61;100749.22;4974524;28;20208;-72
2021/06/05 01:33:41;;;;;;;4.43;4.13;;;;;;;17.71;98.79;100747.16;4974463;28;20208;-72
2021/06/05 01:36:08;;;;;;;5.27;4.87;;;;;;;17.78;98.52;100755.66;4974293;28;20176;-72
2021/06/05 01:38:36;;;;;;;4.10;3.80;;;;;;;17.67;98.32;100758.09;4974288;28;20229;-72
2021/06/05 01:41:04;;;;;;;4.43;4.13;;;;;;;17.65;98.95;100752.13;4974200;28;20225;-72
2021/06/05 01:43:29;;;;;;;5.33;4.93;;;;;;;17.70;99.11;100751.88;4974195;28;20220;-72
2021/06/05 01:45:58;;;;;;;4.33;4.10;;;;;;;17.77;99.32;100754.03;4974292;28;20189;-71
2021/06/05 01:48:24;;;;;;;4.50;4.20;;;;;;;17.72;99.03;100755.09;4973950;28;20205;-72
2021/06/05 01:50:51;;;;;;;5.07;4.60;;;;;;;17.74;99.42;100751.97;4974189;28;20178;-72
2021/06/05 01:53:23;;;;;;;5.07;4.67;;;;;;;17.72;99.48;100757.88;4973963;28;20604;-71
2021/06/05 01:55:54;;;;;;;3.83;3.63;;;;;;;17.64;99.25;100744.97;4974007;28;20177;-72
2021/06/05 01:58:22;;;;;;;4.50;4.20;;;;;;;17.64;99.39;100747.72;4973944;28;20178;-72
2021/06/05 02:00:52;;;;;;;5.67;5.03;;;;;;;17.65;99.63;100746.59;4973813;28;20686;-72
2021/06/05 02:03:18;;;;;;;5.00;4.60;;;;;;;17.57;99.58;100755.03;4974116;28;20170;-72
2021/06/05 02:05:44;;;;;;;5.10;4.70;;;;;;;17.53;100.00;100757.69;4973387;28;20220;-72
2021/06/05 02:08:13;;;;;;;5.10;4.70;;;;;;;17.58;100.00;100751.09;4973318;28;20204;-72
2021/06/05 02:10:39;;;;;;;4.20;3.90;;;;;;;17.68;100.00;100748.69;4973879;28;20709;-72
2021/06/05 02:13:10;;;;;;;4.73;4.33;;;;;;;17.79;100.00;100752.56;4973571;28;20190;-72
2021/06/05 02:15:41;;;;;;;4.70;4.30;;;;;;;17.86;100.00;100748.38;4973703;28;20170;-72
2021/06/05 02:18:10;;;;;;;4.33;4.03;;;;;;;17.92;99.65;100746.94;4973616;28;20213;-72
2021/06/05 02:20:40;;;;;;;4.33;4.03;;;;;;;17.93;99.00;100743.00;4972237;28;20204;-72
2021/06/05 02:23:14;;;;;;;3.37;3.17;;;;;;;17.96;98.58;100736.81;4973826;28;20202;-72
2021/06/05 02:25:39;;;;;;;3.87;3.57;;;;;;;17.96;98.25;100740.38;4973665;28;20217;-72
2021/06/05 02:28:05;;;;;;;4.00;3.80;;;;;;;17.95;98.03;100733.22;4972090;28;20182;-72
2021/06/05 02:30:31;;;;;;;3.83;3.37;;;;;;;17.85;98.15;100733.75;4973377;28;20178;-72
2021/06/05 02:32:58;;;;;;;3.33;3.13;;;;;;;17.78;98.19;100733.53;4973330;28;20173;-72
2021/06/05 02:35:34;;;;;;;4.07;3.77;;;;;;;17.81;98.51;100730.88;4973203;28;20547;-72
2021/06/05 02:38:00;;;;;;;3.80;3.60;;;;;;;17.88;99.02;100726.69;4973135;28;20181;-72
2021/06/05 02:40:28;;;;;;;3.70;3.40;;;;;;;17.86;98.42;100735.34;4973202;28;20197;-72
2021/06/05 02:42:56;;;;;;;3.33;3.13;;;;;;;17.83;98.10;100733.28;4971868;28;20639;-72
2021/06/05 02:45:28;;;;;;;4.00;3.60;;;;;;;17.86;98.41;100734.53;4973572;28;20260;-72
2021/06/05 02:48:00;;;;;;;3.77;3.47;;;;;;;17.86;99.18;100737.31;4972992;28;20182;-72
2021/06/05 02:50:39;;;;;;;2.93;2.70;;;;;;;17.88;98.22;100740.53;4973060;28;20170;-72
2021/06/05 02:53:06;;;;;;;3.03;2.83;;;;;;;17.74;97.92;100741.72;4972924;28;20204;-72
2021/06/05 02:55:32;;;;;;;4.00;3.70;;;;;;;17.73;98.11;100742.09;4972883;28;20661;-72
2021/06/05 02:57:57;;;;;;;3.67;3.37;;;;;;;17.65;97.73;100735.53;4972730;28;20276;-72
2021/06/05 03:00:31;;;;;;;3.00;2.80;;;;;;;17.65;98.18;100731.94;4973009;28;20205;-72
2021/06/05 03:02:57;;;;;;;3.57;3.37;;;;;;;17.63;99.21;100735.06;4972802;28;20178;-72
2021/06/05 03:05:24;;;;;;;4.20;3.90;;;;;;;17.69;98.80;100733.69;4972779;28;20555;-72
2021/06/05 03:07:49;;;;;;;3.50;3.20;;;;;;;17.72;98.15;100733.00;4972775;28;20202;-72
2021/06/05 03:10:15;;;;;;;3.37;3.17;;;;;;;17.73;98.09;100742.09;4972482;28;20597;-72
2021/06/05 03:12:41;;;;;;;3.57;3.37;;;;;;;17.76;98.36;100731.13;4972506;28;20188;-72
2021/06/05 03:15:08;;;;;;;3.77;3.57;;;;;;;17.81;98.44;100735.63;4972318;28;20182;-72
2021/06/05 03:17:33;;;;;;;3.20;3.00;;;;;;;17.84;97.46;100735.69;4971977;28;20177;-72
2021/06/05 03:19:59;;;;;;;3.70;3.47;;;;;;;17.87;96.85;100741.69;4972358;28;20657;-72
2021/06/05 03:22:24;;;;;;;3.37;3.17;;;;;;;17.89;96.69;100733.84;4971230;28;20235;-72
2021/06/05 03:24:51;;;;;;;3.33;3.13;;;;;;;17.92;96.92;100725.63;4980063;28;20181;-72
2021/06/05 03:27:18;;;;;;;3.87;3.57;;;;;;;17.96;96.81;100729.31;4991724;28;20188;-72
2021/06/05 03:29:43;;;;;;;3.00;2.80;;;;;;;18.01;96.79;100729.03;4991695;28;20197;-72
2021/06/05 03:32:10;;;;;;;3.70;3.50;;;;;;;18.05;96.66;100721.63;4991761;28;20681;-72
2021/06/05 03:34:35;;;;;;;3.63;3.43;;;;;;;18.10;96.81;100729.69;4991680;28;20174;-72
2021/06/05 03:37:00;;;;;;;4.10;3.80;;;;;;;17.53;98.38;100722.56;4991575;28;20542;-72
2021/06/05 03:39:26;;;;;;;3.53;3.33;;;;;;;17.40;100.00;100723.78;4991821;28;20573;-72
2021/06/05 03:41:51;;;;;;;4.00;3.70;;;;;;;17.61;100.00;100725.53;4991566;28;20811;-72
2021/06/05 03:44:16;;;;;;;3.50;3.30;;;;;;;17.83;99.58;100717.50;4991489;28;20252;-72
2021/06/05 03:46:41;;;;;;;4.90;4.57;;;;;;;17.94;98.67;100720.56;4991542;28;20192;-72
2021/06/05 03:49:09;;;;;;;4.40;4.10;;;;;;;17.82;98.56;100721.44;4990080;28;20181;-72
2021/06/05 03:51:35;;;;;;;4.23;3.93;;;;;;;17.99;98.33;100723.06;4991427;28;20177;-72
2021/06/05 03:54:01;;;;;;;4.63;4.33;;;;;;;18.17;97.48;100720.75;4991287;28;20181;-72
2021/06/05 03:56:26;;;;;;;6.07;3.70;;;;;;;18.26;96.79;100728.91;4991389;28;20188;-72
2021/06/05 03:58:53;;;;;;;4.13;3.83;;;;;;;18.30;95.86;100727.81;4991446;28;20561;-72
2021/06/05 04:01:22;;;;;;;4.43;4.13;;;;;;;18.19;96.10;100726.75;4991159;28;20236;-72
2021/06/05 04:03:47;;;;;;;4.00;3.77;;;;;;;18.30;95.78;100732.56;4991656;28;20205;-72
2021/06/05 04:06:13;;;;;;;4.83;4.53;;;;;;;18.31;96.11;100737.72;4991260;28;20205;-72
2021/06/05 04:08:40;;;;;;;4.40;4.10;;;;;;;18.36;95.94;100728.34;4990897;28;20653;-72
2021/06/05 04:11:06;;;;;;;4.80;4.50;;;;;;;17.81;98.44;100724.56;4991379;28;20175;-72
2021/06/05 04:13:33;;;;;;;5.40;5.00;;;;;;;17.64;99.39;100730.34;4991200;28;20189;-72
2021/06/05 04:15:58;;;;;;;4.63;4.23;;;;;;;17.68;99.28;100728.50;4991217;28;20181;-72
2021/06/05 04:18:31;;;;;;;5.07;4.67;;;;;;;17.87;99.11;100730.63;4990973;28;20182;-72
2021/06/05 04:20:58;;;;;;;4.40;4.10;;;;;;;18.12;98.33;100732.09;4991078;28;20223;-72
2021/06/05 04:23:24;;;;;;;4.10;3.80;;;;;;;18.22;97.17;100731.56;4991184;28;20408;-72
2021/06/05 04:25:50;;;;;;;4.13;3.80;;;;;;;18.26;96.91;100724.16;4989758;28;20180;-71
2021/06/05 04:28:19;;;;;;;4.40;4.10;;;;;;;18.34;96.76;100725.13;4992576;28;20180;-72
2021/06/05 04:30:45;;;;;;;4.20;3.90;;;;;;;18.40;96.69;100734.78;4994967;28;20177;-72
2021/06/05 04:33:14;;;;;;;4.70;4.40;;;;;;;18.43;96.84;100729.34;4994891;28;20165;-72
2021/06/05 04:35:39;;;;;;;4.77;4.37;;;;;;;18.26;96.95;100724.16;4994894;28;20204;-72
2021/06/05 04:38:07;;;;;;;4.97;4.57;;;;;;;18.28;97.14;100724.59;4994716;28;20433;-72
2021/06/05 04:40:33;;;;;;;4.50;4.20;;;;;;;18.46;97.46;100727.00;4994773;28;20196;-72
2021/06/05 04:42:58;;;;;;;4.70;4.40;;;;;;;18.57;97.24;100720.59;4994869;28;20273;-72
2021/06/05 04:45:24;;;;;;;4.33;4.03;;;;;;;18.60;96.31;100728.16;4994740;28;20264;-72
2021/06/05 04:47:50;;;;;;;3.87;3.57;;;;;;;18.61;95.87;100717.91;4994566;28;20224;-72
2021/06/05 04:50:28;;;;;;;4.10;3.80;;;;;;;18.64;94.65;100719.97;4994496;28;20653;-72
2021/06/05 04:52:53;;;;;;;4.80;4.37;;;;;;;18.31;96.40;100720.31;4994600;28;20173;-72
2021/06/05 04:55:19;;;;;;;4.23;3.93;;;;;;;18.21;97.45;100716.13;4994469;28;20711;-72
2021/06/05 04:57:45;;;;;;;4.60;4.27;;;;;;;18.44;96.18;100727.38;4994364;28;20208;-72
2021/06/05 05:00:14;;;;;;;4.30;4.00;;;;;;;18.33;96.28;100729.88;4994260;28;20720;-72
2021/06/05 05:02:40;;;;;;;4.47;4.17;;;;;;;18.41;96.38;100734.44;4994357;28;20184;-72
2021/06/05 05:05:06;;;;;;;4.07;3.80;;;;;;;18.62;95.70;100725.03;4994344;28;20173;-72
2021/06/05 05:07:33;;;;;;;4.50;4.20;;;;;;;18.60;95.41;100728.16;4994209;28;20184;-72
2021/06/05 05:09:58;;;;;;;4.93;4.43;;;;;;;18.37;95.97;100730.78;4994017;28;20185;-72
2021/06/05 05:12:24;;;;;;;4.93;4.63;;;;;;;18.22;96.76;100730.75;4994306;28;20183;-72
2021/06/05 05:14:49;;;;;;;5.40;5.00;;;;;;;18.26;96.93;100737.19;4993984;28;20638;-71
2021/06/05 05:17:15;;;;;;;4.67;4.37;;;;;;;18.44;96.45;100728.19;4993959;28;20177;-72
2021/06/05 05:19:40;;;;;;;5.00;4.70;;;;;;;18.58;96.06;100735.22;4993980;28;20259;-72
2021/06/05 05:22:05;;;;;;;5.37;4.93;;;;;;;18.77;95.63;100731.75;4994012;28;20209;-72
2021/06/05 05:24:31;;;;;;;4.20;3.90;;;;;;;18.88;94.85;100730.84;4994145;28;20517;-72
2021/06/05 05:26:56;;;;;;;5.70;5.10;;;;;;;18.86;94.50;100727.63;5000555;28;20173;-72
2021/06/05 05:29:21;;;;;;;5.20;4.90;;;;;;;18.80;93.91;100720.75;5000093;28;20630;-72
2021/06/05 05:31:47;;;;;;;5.50;5.13;;;;;;;18.88;93.76;100730.03;4995287;28;20228;-72
2021/06/05 05:34:13;;;;;;;6.17;5.77;;;;;;;18.56;95.23;100723.72;4994511;28;20260;-72
2021/06/05 05:36:40;;;;;;;5.30;5.00;;;;;;;18.38;95.82;100726.84;4994064;28;20548;-72
2021/06/05 05:39:12;;;;;;;6.53;6.03;;;;;;;18.40;96.32;100729.25;4992946;28;20181;-72
2021/06/05 05:41:38;;;;;;;6.63;6.13;;;;;;;18.49;96.23;100726.28;4993792;28;20212;-72
2021/06/05 05:44:03;;;;;;;6.80;6.30;;;;;;;18.38;96.62;100737.91;4993865;28;20754;-72
2021/06/05 05:46:29;;;;;;;7.47;6.87;;;;;;;18.51;96.08;100729.50;4993732;28;20185;-72
2021/06/05 05:48:54;;;;;;;6.17;5.77;;;;;;;18.60;95.73;100738.44;4993673;28;20185;-72
2021/06/05 05:51:22;;;;;;;8.00;7.40;;;;;;;18.69;95.34;100736.31;4993682;28;20223;-72
2021/06/05 05:53:48;;;;;;;6.63;6.13;;;;;;;18.79;95.83;100746.03;4993553;28;20218;-72
2021/06/05 05:56:16;;;;;;;6.80;6.40;;;;;;;18.98;94.99;100738.59;4993596;28;20235;-72
2021/06/05 05:58:45;;;;;;;8.07;6.47;;;;;;;19.02;94.13;100738.66;4993364;28;20189;-72
2021/06/05 06:01:12;;;;;;;6.57;6.07;;;;;;;18.77;94.20;100742.81;4993764;28;20213;-72
2021/06/05 06:03:38;;;;;;;7.37;6.77;;;;;;;18.79;94.43;100746.81;4993381;28;20313;-72
2021/06/05 06:06:06;;;;;;;6.70;6.10;;;;;;;18.71;94.97;100740.34;4993450;28;20177;-72
2021/06/05 06:08:32;;;;;;;7.37;6.83;;;;;;;18.64;96.06;100748.44;4993033;28;20768;-72
2021/06/05 06:10:57;;;;;;;7.17;6.57;;;;;;;18.65;96.55;100735.41;4993385;28;20251;-72
2021/06/05 06:13:22;;;;;;;5.90;5.50;;;;;;;18.84;96.44;100743.81;4993047;28;20551;-72
2021/06/05 06:15:48;;;;;;;7.07;6.63;;;;;;;19.12;95.87;100740.06;4993234;28;20177;-72
2021/06/05 06:18:15;;;;;;;6.07;5.60;;;;;;;19.16;94.92;100735.41;4993074;28;20252;-72
2021/06/05 06:20:46;;;;;;;6.50;5.90;;;;;;;19.27;94.69;100745.56;4992980;28;20216;-73
2021/06/05 06:23:19;;;;;;;6.47;6.07;;;;;;;19.28;93.99;100740.81;4993059;28;20181;-72
2021/06/05 06:25:49;;;;;;;7.03;6.43;;;;;;;19.26;94.64;100738.41;4985120;28;20188;-72
2021/06/05 06:28:14;;;;;;;6.07;5.67;;;;;;;19.36;94.07;100734.25;4986922;28;20186;-72
2021/06/05 06:30:42;;;;;;;7.37;6.87;;;;;;;19.35;94.08;100735.41;4992891;28;20181;-72
2021/06/05 06:33:09;;;;;;;6.50;6.03;;;;;;;19.44;93.50;100732.44;4992771;28;20197;-72
2021/06/05 06:35:36;;;;;;;6.90;6.40;;;;;;;19.32;94.47;100736.16;4992787;28;20527;-72
2021/06/05 06:38:04;;;;;;;7.60;7.00;;;;;;;19.33;94.43;100737.75;4992581;28;20223;-72
2021/06/05 06:40:33;;;;;;;7.77;7.17;;;;;;;19.36;94.17;100736.22;4992619;28;20197;-72
2021/06/05 06:42:59;;;;;;;7.53;6.93;;;;;;;19.51;93.89;100744.47;4991280;28;20192;-72
2021/06/05 06:45:25;;;;;;;7.97;7.30;;;;;;;19.55;93.83;100744.59;4992602;28;20209;-73
2021/06/05 06:47:51;;;;;;;6.93;6.43;;;;;;;19.81;93.64;100741.94;4992218;28;20181;-72
2021/06/05 06:50:19;;;;;;;7.17;6.57;;;;;;;19.98;92.72;100751.00;4988709;28;20181;-72
2021/06/05 06:52:44;;;;;;;7.07;6.57;;;;;;;20.00;91.80;100752.22;4986223;28;20547;-72
2021/06/05 06:55:11;;;;;;;7.93;7.30;;;;;;;20.01;91.27;100748.28;4973883;28;20293;-72
2021/06/05 06:57:37;;;;;;;6.30;5.90;;;;;;;20.29;91.67;100741.63;4973036;28;20646;-72
2021/06/05 07:00:07;;;;;;;6.83;6.33;;;;;;;20.48;91.02;100742.38;4972831;28;20302;-72
2021/06/05 07:02:32;;;;;;;6.73;6.23;;;;;;;20.65;90.23;100741.06;4972949;28;20166;-72
2021/06/05 07:04:58;;;;;;;6.83;6.33;;;;;;;20.81;88.85;100740.91;4972893;28;20178;-72
2021/06/05 07:07:23;;;;;;;6.60;6.07;;;;;;;20.91;88.30;100740.28;4972742;28;20232;-72
2021/06/05 07:09:48;;;;;;;6.07;5.53;;;;;;;21.14;86.75;100733.88;4972540;28;20186;-73
2021/06/05 07:12:14;;;;;;;6.57;5.60;;;;;;;21.07;85.13;100738.13;4972923;28;20182;-73
2021/06/05 07:14:40;;;;;;;5.80;5.30;;;;;;;21.34;85.70;100738.94;4972407;28;20202;-73
2021/06/05 07:17:09;;;;;;;5.23;4.87;;;;;;;21.46;85.68;100739.88;4972887;28;20174;-73
2021/06/05 07:19:34;;;;;;;6.53;6.03;;;;;;;21.35;84.30;100740.53;4972940;28;20198;-73
2021/06/05 07:22:02;;;;;;;7.27;6.13;;;;;;;21.39;84.85;100743.34;4971785;28;20252;-72
2021/06/05 07:24:29;;;;;;;5.90;5.47;;;;;;;21.11;84.97;100740.97;4971990;28;20174;-73
2021/06/05 07:26:55;;;;;;;5.97;5.47;;;;;;;20.93;85.27;100735.16;4970786;28;20186;-72
2021/06/05 07:29:20;;;;;;;5.57;5.17;;;;;;;21.02;85.06;100743.22;4971915;28;20244;-72
2021/06/05 07:31:50;;;;;;;5.70;5.20;;;;;;;20.97;84.80;100736.00;4972022;28;20185;-72
2021/06/05 07:34:21;;;;;;;4.50;4.20;;;;;;;21.17;84.55;100733.13;4971807;28;20258;-73
2021/06/05 07:36:49;;;;;;;5.20;4.80;;;;;;;21.34;83.14;100736.16;4971971;28;20201;-73
2021/06/05 07:39:17;;;;;;;8.13;4.23;;;;;;;21.14;82.81;100745.78;4985091;28;20185;-73
2021/06/05 07:41:44;;;;;;;4.77;4.37;;;;;;;21.15;82.31;100746.59;4990078;28;20235;-73
2021/06/05 07:44:10;;;;;;;4.33;4.13;;;;;;;21.05;83.77;100746.06;4990214;28;20181;-73
2021/06/05 07:46:40;;;;;;;4.60;4.30;;;;;;;21.12;83.77;100744.53;4990918;28;20534;-73
2021/06/05 07:49:06;;;;;;;4.40;4.10;;;;;;;21.21;82.79;100745.06;4991258;28;20184;-74
2021/06/05 07:51:32;;;;;;;4.13;3.83;;;;;;;21.12;82.85;100748.16;4991348;28;20173;-73
2021/06/05 07:53:57;;;;;;;4.33;4.07;;;;;;;21.15;83.20;100741.03;4991196;28;20629;-73
2021/06/05 07:56:22;;;;;;;6.10;4.50;;;;;;;21.25;83.19;100752.31;4989963;28;20632;-74
2021/06/05 07:58:48;;;;;;;5.33;4.93;;;;;;;21.24;82.61;100744.31;4990017;28;20181;-73
2021/06/05 08:01:13;;;;;;;5.63;4.53;;;;;;;21.36;81.37;100744.13;4990337;28;20217;-73
2021/06/05 08:03:38;;;;;;;4.93;4.53;;;;;;;21.22;81.46;100749.44;4990687;28;20252;-73
2021/06/05 08:06:04;;;;;;;4.50;4.20;;;;;;;21.44;81.98;100745.03;4990823;28;20199;-73
2021/06/05 08:08:30;;;;;;;4.90;4.60;;;;;;;21.78;81.77;100749.41;4979420;28;20261;-74
2021/06/05 08:10:56;;;;;;;3.73;3.53;;;;;;;21.95;80.06;100746.00;4984523;28;20189;-73
2021/06/05 08:13:21;;;;;;;4.17;3.80;;;;;;;21.91;79.26;100753.53;4990686;28;20201;-72
2021/06/05 08:15:50;;;;;;;4.43;4.13;;;;;;;21.94;78.46;100755.53;4971592;28;20696;-72
2021/06/05 08:18:16;;;;;;;3.77;3.57;;;;;;;21.74;79.43;100748.56;4971003;28;20169;-73
2021/06/05 08:20:48;;;;;;;3.73;3.50;;;;;;;21.78;79.38;100756.94;4971660;28;20570;-73
2021/06/05 08:23:15;;;;;;;4.17;3.87;;;;;;;22.10;80.69;100752.56;4971653;28;20635;-72
2021/06/05 08:25:40;;;;;;;4.33;4.03;;;;;;;22.33;80.07;100755.19;4971622;28;20635;-71
2021/06/05 08:28:08;;;;;;;4.43;4.13;;;;;;;22.34;77.23;100756.78;4977281;28;20269;-71
2021/06/05 08:30:41;;;;;;;3.80;3.50;;;;;;;22.41;78.73;100756.03;4990840;28;20177;-71
2021/06/05 08:33:07;;;;;;;3.90;3.60;;;;;;;22.34;78.11;100751.22;4989999;28;20196;-71
2021/06/05 08:35:32;;;;;;;4.43;3.77;;;;;;;22.11;79.16;100751.38;4990840;28;20177;-71
2021/06/05 08:37:57;;;;;;;4.43;4.13;;;;;;;22.10;79.27;100754.53;4990897;28;20575;-71
2021/06/05 08:40:35;;;;;;;4.43;4.13;;;;;;;22.04;79.69;100747.69;4990777;28;20178;-71
2021/06/05 08:43:01;;;;;;;4.90;4.50;;;;;;;22.12;79.70;100741.84;4990742;28;20174;-71
2021/06/05 08:45:30;;;;;;;5.70;5.20;;;;;;;22.27;80.20;100751.94;4990944;28;20177;-72
2021/06/05 08:47:56;;;;;;;4.97;4.57;;;;;;;22.44;79.59;100749.72;4988809;28;20666;-72
2021/06/05 08:50:28;;;;;;;5.53;5.13;;;;;;;22.58;79.15;100749.84;4986854;28;20178;-72
2021/06/05 08:53:02;;;;;;;6.27;5.77;;;;;;;22.56;78.29;100746.59;4990812;28;20562;-71
2021/06/05 08:55:41;;;;;;;5.47;5.07;;;;;;;22.81;78.20;100758.75;4990797;28;20199;-72
2021/06/05 08:58:28;;;;;;;6.33;5.93;;;;;;;22.45;77.06;100751.31;4989342;28;20272;-72
2021/06/05 09:01:36;;;;;;;6.97;6.43;;;;;;;22.49;77.84;100752.94;4990622;28;20499;-72
2021/06/05 09:04:09;;;;;;;6.10;5.70;;;;;;;22.80;76.23;100764.72;4987344;28;20206;-72
2021/06/05 09:06:40;;;;;;;6.90;6.40;;;;;;;22.76;77.44;100759.13;4989153;28;20178;-72
2021/06/05 09:09:08;;;;;;;5.83;5.43;;;;;;;23.16;76.85;100768.59;4990373;28;20209;-72
2021/06/05 09:11:34;;;;;;;6.07;5.67;;;;;;;23.30;75.11;100757.53;4990361;28;20177;-72
2021/06/05 09:14:00;;;;;;;7.60;7.00;;;;;;;23.18;75.71;100757.84;4990771;28;20247;-72
2021/06/05 09:16:34;;;;;;;6.67;6.13;;;;;;;23.10;76.64;100754.19;4994240;28;20176;-72
2021/06/05 09:19:01;;;;;;;6.97;6.47;;;;;;;23.20;75.10;100760.25;4993574;28;20598;-72
2021/06/05 09:21:34;;;;;;;5.80;5.40;;;;;;;23.21;75.96;100748.69;4993800;28;20300;-72
2021/06/05 09:24:31;;;;;;;7.10;6.40;;;;;;;23.25;75.30;100751.50;4992443;28;20185;-72
2021/06/05 09:27:20;;;;;;;6.40;5.90;;;;;;;23.42;75.86;100756.34;4991463;28;20193;-72
2021/06/05 09:29:56;;;;;;;7.10;6.50;;;;;;;23.09;75.66;100751.81;4993675;28;20220;-72
2021/06/05 09:32:33;;;;;;;8.10;7.50;;;;;;;22.80;76.22;100745.22;4993618;28;20181;-72
2021/06/05 09:35:05;;;;;;;7.73;7.20;;;;;;;23.02;77.20;100758.16;4993673;28;20179;-72
2021/06/05 09:37:36;;;;;;;7.80;7.20;;;;;;;23.24;74.83;100744.31;4993534;28;20206;-72
2021/06/05 09:40:17;;;;;;;8.40;7.60;;;;;;;23.03;74.68;100751.38;4989903;28;20190;-72
2021/06/05 09:42:47;;;;;;;7.03;6.53;;;;;;;22.92;76.34;100755.28;4992899;28;20217;-72
2021/06/05 09:45:29;;;;;;;8.03;7.33;;;;;;;23.22;75.20;100741.94;4993343;28;20236;-72
2021/06/05 09:48:19;;;;;;;7.43;6.87;;;;;;;23.30;75.13;100743.56;4993335;28;20184;-71
2021/06/05 09:50:47;;;;;;;6.77;6.27;;;;;;;23.10;76.12;100743.03;4993063;28;20293;-71
2021/06/05 09:53:33;;;;;;;6.97;6.37;;;;;;;23.07;75.56;100752.19;4993318;28;20185;-71
2021/06/05 09:56:23;;;;;;;7.40;6.80;;;;;;;22.94;77.06;100750.91;4993331;28;20653;-71
2021/06/05 09:59:07;;;;;;;7.23;6.63;;;;;;;23.15;76.02;100756.63;4992727;28;20673;-71
2021/06/05 10:01:35;;;;;;;6.20;5.80;;;;;;;22.76;76.45;100749.97;4993167;28;20220;-71
2021/06/05 10:04:19;;;;;;;7.70;7.10;;;;;;;22.66;76.54;100753.47;4993068;28;20200;-71
2021/06/05 10:06:54;;;;;;;8.37;7.67;;;;;;;22.67;77.25;100746.69;4993091;28;20181;-71
2021/06/05 10:09:30;;;;;;;7.33;6.80;;;;;;;22.92;77.66;100738.56;4993008;28;20258;-71
2021/06/05 10:12:23;;;;;;;7.67;7.07;;;;;;;22.99;77.24;100739.38;4993170;28;20209;-71
2021/06/05 10:14:57;;;;;;;7.67;7.10;;;;;;;23.16;76.99;100726.78;4989872;28;20565;-71
2021/06/05 10:17:36;;;;;;;8.27;7.67;;;;;;;22.73;78.56;100729.25;4993085;28;20560;-71
2021/06/05 10:20:21;;;;;;;8.40;7.80;;;;;;;22.83;77.67;100731.31;4992688;28;20173;-71
2021/06/05 10:22:50;;;;;;;9.07;8.47;;;;;;;22.84;77.95;100740.47;4992919;28;20177;-71
2021/06/05 10:25:22;;;;;;;10.17;9.47;;;;;;;22.59;77.69;100742.28;4992266;28;20560;-71
2021/06/05 10:27:48;;;;;;;8.50;7.90;;;;;;;22.71;78.08;100742.78;4991399;28;20235;-71
2021/06/05 10:30:23;;;;;;;9.67;9.07;;;;;;;22.42;77.49;100733.41;4992933;28;20251;-71
2021/06/05 10:32:48;;;;;;;9.50;8.80;;;;;;;22.26;77.57;100730.03;4992695;28;20173;-71
2021/06/05 10:35:26;;;;;;;9.83;9.13;;;;;;;22.38;77.29;100729.75;4992798;28;20183;-71
2021/06/05 10:38:02;;;;;;;9.17;8.53;;;;;;;22.39;78.80;100725.78;4992485;28;20330;-71
2021/06/05 10:40:28;;;;;;;9.10;8.40;;;;;;;22.55;78.40;100733.88;4992695;28;20179;-72
2021/06/05 10:42:54;;;;;;;9.97;9.17;;;;;;;22.50;78.63;100739.81;4992703;28;20228;-72
2021/06/05 10:45:33;;;;;;;9.53;8.83;;;;;;;22.48;78.05;100742.97;4992592;28;20242;-71
2021/06/05 10:48:05;;;;;;;10.10;9.20;;;;;;;22.56;78.61;100744.63;4991214;28;20180;-72
2021/06/05 10:50:34;;;;;;;9.87;9.17;;;;;;;22.76;78.95;100738.81;4990981;28;20197;-72
2021/06/05 10:53:00;;;;;;;10.13;9.33;;;;;;;22.62;79.23;100749.84;4992005;28;20193;-71
2021/06/05 10:55:51;;;;;;;10.10;9.40;;;;;;;22.20;79.48;100735.16;4992227;28;20177;-71
2021/06/05 10:58:22;;;;;;;10.97;10.17;;;;;;;22.15;80.12;100749.44;4992240;28;20610;-72
2021/06/05 11:01:00;;;;;;;11.10;10.30;;;;;;;22.11;81.26;100742.22;4992149;28;20193;-71
2021/06/05 11:03:25;;;;;;;10.43;9.73;;;;;;;22.18;81.05;100745.09;4992037;28;20185;-72
2021/06/05 11:06:12;;;;;;;9.87;9.17;;;;;;;22.34;81.33;100751.22;4992518;28;20266;-71
2021/06/05 11:08:49;;;;;;;11.50;10.67;;;;;;;22.40;81.02;100760.78;4997037;28;20193;-71
2021/06/05 11:11:33;;;;;;;11.03;10.23;;;;;;;22.43;81.78;100748.91;4997706;28;20173;-71
2021/06/05 11:14:00;;;;;;;11.43;10.67;;;;;;;22.32;82.69;100747.22;4993468;28;20191;-71
2021/06/05 11:16:57;;;;;;;12.63;11.60;;;;;;;22.31;83.70;100751.97;4992194;28;20181;-72
2021/06/05 11:19:30;;;;;;;8.60;7.97;;;;;;;22.12;84.33;100766.09;4989891;28;20214;-71
2021/06/05 11:22:06;;;;;;;3.63;3.33;;;;;;;21.15;84.89;100766.84;4991929;28;20213;-70
2021/06/05 11:24:32;;;;;;;4.50;4.17;;;;;;;20.44;91.16;100780.41;4992228;28;20169;-71
2021/06/05 11:26:59;;;;;;;6.70;6.17;;;;;;;20.01;94.14;100797.41;4991996;28;20203;-71
2021/06/05 11:29:27;;;;;;;6.67;6.20;;;;;;;19.80;96.83;100797.75;4991548;28;20177;-71
2021/06/05 11:32:08;;;;;;;8.70;8.00;;;;;;;19.72;99.09;100794.06;4990732;28;20539;-71
2021/06/05 11:34:36;;;;;;;10.10;9.30;;;;;;;19.68;100.00;100793.19;4990593;28;20177;-71
2021/06/05 11:37:01;;;;;;;11.10;10.30;;;;;;;19.69;100.00;100783.69;4991081;28;20664;-71